sensor_id;sensor_type;location;lat;lon;timestamp;P1;durP1;ratioP1;P2;durP2;ratioP2
33268;SDS011;19640;50.944;5.260;2022-11-18T00:02:16;3.05;;;0.90;;
33268;SDS011;19640;50.944;5.260;2022-11-18T00:04:41;5.05;;;1.60;;
33268;SDS011;19640;50.944;5.260;2022-11-18T00:07:07;4.30;;;1.50;;
33268;SDS011;19640;50.944;5.260;2022-11-18T00:09:33;2.13;;;1.00;;
33268;SDS011;19640;50.944;5.260;2022-11-18T00:11:58;4.68;;;1.15;;
33268;SDS011;19640;50.944;5.260;2022-11-18T00:14:42;2.58;;;1.20;;
33268;SDS011;19640;50.944;5.260;2022-11-18T00:17:08;3.33;;;1.10;;
33268;SDS011;19640;50.944;5.260;2022-11-18T00:19:35;5.90;;;1.48;;
33268;SDS011;19640;50.944;5.260;2022-11-18T00:22:03;5.20;;;1.15;;
33268;SDS011;19640;50.944;5.260;2022-11-18T00:24:30;4.15;;;1.25;;
33268;SDS011;19640;50.944;5.260;2022-11-18T00:26:56;4.70;;;1.30;;
33268;SDS011;19640;50.944;5.260;2022-11-18T00:29:22;1.88;;;1.00;;
33268;SDS011;19640;50.944;5.260;2022-11-18T00:31:50;2.97;;;1.45;;
33268;SDS011;19640;50.944;5.260;2022-11-18T00:34:16;6.10;;;1.40;;
33268;SDS011;19640;50.944;5.260;2022-11-18T00:36:43;2.47;;;1.30;;
33268;SDS011;19640;50.944;5.260;2022-11-18T00:39:10;3.85;;;1.00;;
33268;SDS011;19640;50.944;5.260;2022-11-18T00:41:36;3.65;;;1.08;;
33268;SDS011;19640;50.944;5.260;2022-11-18T00:44:20;3.42;;;1.13;;
33268;SDS011;19640;50.944;5.260;2022-11-18T00:46:46;2.88;;;0.95;;
33268;SDS011;19640;50.944;5.260;2022-11-18T00:49:12;3.60;;;0.90;;
33268;SDS011;19640;50.944;5.260;2022-11-18T00:51:37;5.03;;;1.08;;
33268;SDS011;19640;50.944;5.260;2022-11-18T00:54:03;2.20;;;1.02;;
33268;SDS011;19640;50.944;5.260;2022-11-18T00:56:29;3.63;;;1.20;;
33268;SDS011;19640;50.944;5.260;2022-11-18T00:58:54;4.45;;;1.38;;
33268;SDS011;19640;50.944;5.260;2022-11-18T01:01:20;3.58;;;0.95;;
33268;SDS011;19640;50.944;5.260;2022-11-18T01:03:46;3.97;;;1.10;;
33268;SDS011;19640;50.944;5.260;2022-11-18T01:06:11;2.85;;;1.08;;
33268;SDS011;19640;50.944;5.260;2022-11-18T01:08:37;4.93;;;1.08;;
33268;SDS011;19640;50.944;5.260;2022-11-18T01:11:03;4.13;;;0.90;;
33268;SDS011;19640;50.944;5.260;2022-11-18T01:13:48;2.38;;;0.90;;
33268;SDS011;19640;50.944;5.260;2022-11-18T01:16:21;3.92;;;1.08;;
33268;SDS011;19640;50.944;5.260;2022-11-18T01:18:49;3.15;;;0.88;;
33268;SDS011;19640;50.944;5.260;2022-11-18T01:21:14;1.88;;;0.70;;
33268;SDS011;19640;50.944;5.260;2022-11-18T01:23:40;4.07;;;1.17;;
33268;SDS011;19640;50.944;5.260;2022-11-18T01:26:06;3.88;;;0.90;;
33268;SDS011;19640;50.944;5.260;2022-11-18T01:28:34;2.15;;;0.90;;
33268;SDS011;19640;50.944;5.260;2022-11-18T01:31:03;6.28;;;1.00;;
33268;SDS011;19640;50.944;5.260;2022-11-18T01:33:31;5.72;;;1.10;;
33268;SDS011;19640;50.944;5.260;2022-11-18T01:35:57;3.55;;;1.10;;
33268;SDS011;19640;50.944;5.260;2022-11-18T01:38:22;4.20;;;1.33;;
33268;SDS011;19640;50.944;5.260;2022-11-18T01:40:48;3.28;;;0.90;;
33268;SDS011;19640;50.944;5.260;2022-11-18T01:43:15;2.30;;;0.90;;
33268;SDS011;19640;50.944;5.260;2022-11-18T01:45:44;6.18;;;1.10;;
33268;SDS011;19640;50.944;5.260;2022-11-18T01:48:17;3.65;;;1.00;;
33268;SDS011;19640;50.944;5.260;2022-11-18T01:50:48;7.10;;;0.98;;
33268;SDS011;19640;50.944;5.260;2022-11-18T01:53:22;6.32;;;1.00;;
33268;SDS011;19640;50.944;5.260;2022-11-18T01:55:51;6.07;;;1.13;;
33268;SDS011;19640;50.944;5.260;2022-11-18T01:58:26;1.90;;;0.93;;
33268;SDS011;19640;50.944;5.260;2022-11-18T02:01:03;4.60;;;1.00;;
33268;SDS011;19640;50.944;5.260;2022-11-18T02:03:30;2.60;;;0.85;;
33268;SDS011;19640;50.944;5.260;2022-11-18T02:05:57;2.95;;;0.95;;
33268;SDS011;19640;50.944;5.260;2022-11-18T02:08:24;4.07;;;0.77;;
33268;SDS011;19640;50.944;5.260;2022-11-18T02:10:50;4.65;;;0.80;;
33268;SDS011;19640;50.944;5.260;2022-11-18T02:13:16;4.97;;;1.10;;
33268;SDS011;19640;50.944;5.260;2022-11-18T02:18:23;6.60;;;1.20;;
33268;SDS011;19640;50.944;5.260;2022-11-18T02:29:23;2.88;;;1.00;;
33268;SDS011;19640;50.944;5.260;2022-11-18T02:31:59;6.05;;;1.38;;
33268;SDS011;19640;50.944;5.260;2022-11-18T02:34:54;4.72;;;1.00;;
33268;SDS011;19640;50.944;5.260;2022-11-18T02:37:24;2.83;;;0.82;;
33268;SDS011;19640;50.944;5.260;2022-11-18T02:40:04;3.22;;;1.08;;
33268;SDS011;19640;50.944;5.260;2022-11-18T02:42:31;2.60;;;1.20;;
33268;SDS011;19640;50.944;5.260;2022-11-18T02:45:03;2.47;;;0.82;;
33268;SDS011;19640;50.944;5.260;2022-11-18T02:47:31;2.13;;;1.08;;
33268;SDS011;19640;50.944;5.260;2022-11-18T02:50:01;1.67;;;0.80;;
33268;SDS011;19640;50.944;5.260;2022-11-18T02:52:30;2.63;;;1.23;;
33268;SDS011;19640;50.944;5.260;2022-11-18T02:54:57;1.52;;;0.90;;
33268;SDS011;19640;50.944;5.260;2022-11-18T02:57:25;4.35;;;1.40;;
33268;SDS011;19640;50.944;5.260;2022-11-18T02:59:54;2.70;;;1.17;;
33268;SDS011;19640;50.944;5.260;2022-11-18T03:02:20;2.03;;;1.30;;
33268;SDS011;19640;50.944;5.260;2022-11-18T03:04:47;2.67;;;0.70;;
33268;SDS011;19640;50.944;5.260;2022-11-18T03:09:47;1.73;;;1.02;;
33268;SDS011;19640;50.944;5.260;2022-11-18T03:15:06;3.17;;;0.90;;
33268;SDS011;19640;50.944;5.260;2022-11-18T03:17:47;2.83;;;1.10;;
33268;SDS011;19640;50.944;5.260;2022-11-18T03:20:41;3.17;;;1.08;;
33268;SDS011;19640;50.944;5.260;2022-11-18T03:23:15;3.85;;;1.13;;
33268;SDS011;19640;50.944;5.260;2022-11-18T03:25:47;2.80;;;1.10;;
33268;SDS011;19640;50.944;5.260;2022-11-18T03:31:07;1.98;;;0.95;;
33268;SDS011;19640;50.944;5.260;2022-11-18T03:33:39;4.95;;;1.00;;
33268;SDS011;19640;50.944;5.260;2022-11-18T03:36:09;3.27;;;0.97;;
33268;SDS011;19640;50.944;5.260;2022-11-18T03:38:39;2.88;;;1.10;;
33268;SDS011;19640;50.944;5.260;2022-11-18T03:41:10;3.08;;;0.90;;
33268;SDS011;19640;50.944;5.260;2022-11-18T03:43:43;2.08;;;1.00;;
33268;SDS011;19640;50.944;5.260;2022-11-18T03:46:15;4.68;;;1.00;;
33268;SDS011;19640;50.944;5.260;2022-11-18T03:48:55;3.42;;;1.30;;
33268;SDS011;19640;50.944;5.260;2022-11-18T03:51:31;2.25;;;1.13;;
33268;SDS011;19640;50.944;5.260;2022-11-18T03:54:04;2.80;;;1.33;;
33268;SDS011;19640;50.944;5.260;2022-11-18T03:56:37;5.10;;;0.95;;
33268;SDS011;19640;50.944;5.260;2022-11-18T03:59:20;3.60;;;0.93;;
33268;SDS011;19640;50.944;5.260;2022-11-18T04:01:58;2.10;;;1.38;;
33268;SDS011;19640;50.944;5.260;2022-11-18T04:04:44;1.23;;;0.95;;
33268;SDS011;19640;50.944;5.260;2022-11-18T04:09:50;2.75;;;1.20;;
33268;SDS011;19640;50.944;5.260;2022-11-18T04:12:21;2.22;;;1.17;;
33268;SDS011;19640;50.944;5.260;2022-11-18T04:14:50;5.63;;;1.20;;
33268;SDS011;19640;50.944;5.260;2022-11-18T04:17:20;4.00;;;1.23;;
33268;SDS011;19640;50.944;5.260;2022-11-18T04:19:47;3.13;;;1.25;;
33268;SDS011;19640;50.944;5.260;2022-11-18T04:22:13;3.58;;;1.10;;
33268;SDS011;19640;50.944;5.260;2022-11-18T04:24:39;3.55;;;1.27;;
33268;SDS011;19640;50.944;5.260;2022-11-18T04:27:05;3.45;;;1.60;;
33268;SDS011;19640;50.944;5.260;2022-11-18T04:29:32;4.75;;;1.20;;
33268;SDS011;19640;50.944;5.260;2022-11-18T04:31:58;4.13;;;1.20;;
33268;SDS011;19640;50.944;5.260;2022-11-18T04:34:24;2.15;;;1.48;;
33268;SDS011;19640;50.944;5.260;2022-11-18T04:36:50;5.15;;;1.52;;
33268;SDS011;19640;50.944;5.260;2022-11-18T04:39:16;2.95;;;1.42;;
33268;SDS011;19640;50.944;5.260;2022-11-18T04:41:44;2.05;;;1.50;;
33268;SDS011;19640;50.944;5.260;2022-11-18T04:44:22;1.17;;;0.90;;
33268;SDS011;19640;50.944;5.260;2022-11-18T04:46:50;3.03;;;1.40;;
33268;SDS011;19640;50.944;5.260;2022-11-18T04:49:16;4.20;;;1.50;;
33268;SDS011;19640;50.944;5.260;2022-11-18T04:51:43;2.25;;;1.42;;
33268;SDS011;19640;50.944;5.260;2022-11-18T04:54:09;3.50;;;1.50;;
33268;SDS011;19640;50.944;5.260;2022-11-18T04:56:35;5.80;;;1.73;;
33268;SDS011;19640;50.944;5.260;2022-11-18T04:59:02;6.03;;;1.77;;
33268;SDS011;19640;50.944;5.260;2022-11-18T05:01:28;5.47;;;1.70;;
33268;SDS011;19640;50.944;5.260;2022-11-18T05:03:55;3.50;;;1.92;;
33268;SDS011;19640;50.944;5.260;2022-11-18T05:06:21;6.47;;;1.90;;
33268;SDS011;19640;50.944;5.260;2022-11-18T05:08:47;4.47;;;1.70;;
33268;SDS011;19640;50.944;5.260;2022-11-18T05:11:13;4.70;;;1.80;;
33268;SDS011;19640;50.944;5.260;2022-11-18T05:13:57;3.97;;;1.45;;
33268;SDS011;19640;50.944;5.260;2022-11-18T05:16:22;6.15;;;1.98;;
33268;SDS011;19640;50.944;5.260;2022-11-18T05:18:48;3.83;;;2.42;;
33268;SDS011;19640;50.944;5.260;2022-11-18T05:21:14;6.47;;;3.05;;
33268;SDS011;19640;50.944;5.260;2022-11-18T05:23:39;4.70;;;2.00;;
33268;SDS011;19640;50.944;5.260;2022-11-18T05:26:06;3.08;;;1.88;;
33268;SDS011;19640;50.944;5.260;2022-11-18T05:28:33;4.22;;;1.98;;
33268;SDS011;19640;50.944;5.260;2022-11-18T05:30:59;5.32;;;2.45;;
33268;SDS011;19640;50.944;5.260;2022-11-18T05:33:30;3.03;;;2.17;;
33268;SDS011;19640;50.944;5.260;2022-11-18T05:35:55;3.88;;;2.50;;
33268;SDS011;19640;50.944;5.260;2022-11-18T05:38:21;5.32;;;2.22;;
33268;SDS011;19640;50.944;5.260;2022-11-18T05:40:46;5.35;;;2.20;;
33268;SDS011;19640;50.944;5.260;2022-11-18T05:43:12;4.25;;;2.35;;
33268;SDS011;19640;50.944;5.260;2022-11-18T05:45:38;4.47;;;2.38;;
33268;SDS011;19640;50.944;5.260;2022-11-18T05:48:04;4.43;;;2.60;;
33268;SDS011;19640;50.944;5.260;2022-11-18T05:50:32;6.00;;;3.03;;
33268;SDS011;19640;50.944;5.260;2022-11-18T05:53:02;4.78;;;2.53;;
33268;SDS011;19640;50.944;5.260;2022-11-18T05:55:30;4.97;;;2.65;;
33268;SDS011;19640;50.944;5.260;2022-11-18T05:58:08;5.85;;;2.88;;
33268;SDS011;19640;50.944;5.260;2022-11-18T06:00:34;5.13;;;2.92;;
33268;SDS011;19640;50.944;5.260;2022-11-18T06:03:00;4.82;;;3.00;;
33268;SDS011;19640;50.944;5.260;2022-11-18T06:05:28;3.50;;;2.75;;
33268;SDS011;19640;50.944;5.260;2022-11-18T06:07:53;4.20;;;2.67;;
33268;SDS011;19640;50.944;5.260;2022-11-18T06:10:23;3.60;;;2.97;;
33268;SDS011;19640;50.944;5.260;2022-11-18T06:12:55;8.80;;;3.00;;
33268;SDS011;19640;50.944;5.260;2022-11-18T06:15:25;5.50;;;3.22;;
33268;SDS011;19640;50.944;5.260;2022-11-18T06:18:00;5.75;;;2.78;;
33268;SDS011;19640;50.944;5.260;2022-11-18T06:20:30;3.60;;;3.00;;
33268;SDS011;19640;50.944;5.260;2022-11-18T06:22:59;4.25;;;3.15;;
33268;SDS011;19640;50.944;5.260;2022-11-18T06:25:26;8.60;;;3.15;;
33268;SDS011;19640;50.944;5.260;2022-11-18T06:27:53;4.03;;;3.05;;
33268;SDS011;19640;50.944;5.260;2022-11-18T06:30:21;4.10;;;2.58;;
33268;SDS011;19640;50.944;5.260;2022-11-18T06:32:47;3.60;;;2.75;;
33268;SDS011;19640;50.944;5.260;2022-11-18T06:35:13;11.05;;;2.80;;
33268;SDS011;19640;50.944;5.260;2022-11-18T06:37:38;6.88;;;2.67;;
33268;SDS011;19640;50.944;5.260;2022-11-18T06:40:04;5.97;;;3.28;;
33268;SDS011;19640;50.944;5.260;2022-11-18T06:42:31;9.30;;;2.78;;
33268;SDS011;19640;50.944;5.260;2022-11-18T06:45:15;4.55;;;2.70;;
33268;SDS011;19640;50.944;5.260;2022-11-18T06:47:41;5.63;;;2.90;;
33268;SDS011;19640;50.944;5.260;2022-11-18T06:50:06;4.20;;;2.80;;
33268;SDS011;19640;50.944;5.260;2022-11-18T06:52:33;6.68;;;2.97;;
33268;SDS011;19640;50.944;5.260;2022-11-18T06:54:58;7.90;;;3.03;;
33268;SDS011;19640;50.944;5.260;2022-11-18T06:57:24;5.13;;;3.10;;
33268;SDS011;19640;50.944;5.260;2022-11-18T06:59:49;5.70;;;2.60;;
33268;SDS011;19640;50.944;5.260;2022-11-18T07:02:15;7.25;;;3.10;;
33268;SDS011;19640;50.944;5.260;2022-11-18T07:04:43;5.30;;;2.58;;
33268;SDS011;19640;50.944;5.260;2022-11-18T07:07:09;4.25;;;2.60;;
33268;SDS011;19640;50.944;5.260;2022-11-18T07:09:35;4.18;;;2.88;;
33268;SDS011;19640;50.944;5.260;2022-11-18T07:12:01;6.30;;;2.42;;
33268;SDS011;19640;50.944;5.260;2022-11-18T07:14:28;7.00;;;2.88;;
33268;SDS011;19640;50.944;5.260;2022-11-18T07:16:55;5.72;;;2.70;;
33268;SDS011;19640;50.944;5.260;2022-11-18T07:19:20;4.15;;;2.85;;
33268;SDS011;19640;50.944;5.260;2022-11-18T07:21:46;7.32;;;2.80;;
33268;SDS011;19640;50.944;5.260;2022-11-18T07:24:12;8.82;;;3.10;;
33268;SDS011;19640;50.944;5.260;2022-11-18T07:26:39;6.97;;;2.65;;
33268;SDS011;19640;50.944;5.260;2022-11-18T07:29:05;10.45;;;2.80;;
33268;SDS011;19640;50.944;5.260;2022-11-18T07:31:31;8.10;;;2.95;;
33268;SDS011;19640;50.944;5.260;2022-11-18T07:33:57;3.75;;;2.40;;
33268;SDS011;19640;50.944;5.260;2022-11-18T07:36:25;5.85;;;3.03;;
33268;SDS011;19640;50.944;5.260;2022-11-18T07:38:51;5.68;;;3.42;;
33268;SDS011;19640;50.944;5.260;2022-11-18T07:41:19;6.68;;;2.50;;
33268;SDS011;19640;50.944;5.260;2022-11-18T07:43:46;5.53;;;2.60;;
33268;SDS011;19640;50.944;5.260;2022-11-18T07:46:21;6.80;;;2.80;;
33268;SDS011;19640;50.944;5.260;2022-11-18T07:48:59;5.20;;;2.30;;
33268;SDS011;19640;50.944;5.260;2022-11-18T07:51:29;5.60;;;2.75;;
33268;SDS011;19640;50.944;5.260;2022-11-18T07:53:56;9.85;;;3.03;;
33268;SDS011;19640;50.944;5.260;2022-11-18T07:56:22;6.03;;;2.85;;
33268;SDS011;19640;50.944;5.260;2022-11-18T07:58:52;5.57;;;2.70;;
33268;SDS011;19640;50.944;5.260;2022-11-18T08:01:19;4.88;;;2.60;;
33268;SDS011;19640;50.944;5.260;2022-11-18T08:03:46;5.32;;;2.42;;
33268;SDS011;19640;50.944;5.260;2022-11-18T08:06:13;5.50;;;2.35;;
33268;SDS011;19640;50.944;5.260;2022-11-18T08:08:41;6.78;;;2.50;;
33268;SDS011;19640;50.944;5.260;2022-11-18T08:11:13;4.93;;;2.45;;
33268;SDS011;19640;50.944;5.260;2022-11-18T08:13:40;4.85;;;2.55;;
33268;SDS011;19640;50.944;5.260;2022-11-18T08:16:19;3.90;;;2.38;;
33268;SDS011;19640;50.944;5.260;2022-11-18T08:18:46;7.60;;;2.05;;
33268;SDS011;19640;50.944;5.260;2022-11-18T08:21:13;8.75;;;2.20;;
33268;SDS011;19640;50.944;5.260;2022-11-18T08:23:40;6.20;;;2.10;;
33268;SDS011;19640;50.944;5.260;2022-11-18T08:28:33;6.07;;;2.13;;
33268;SDS011;19640;50.944;5.260;2022-11-18T08:30:59;7.43;;;2.45;;
33268;SDS011;19640;50.944;5.260;2022-11-18T08:33:32;5.55;;;2.08;;
33268;SDS011;19640;50.944;5.260;2022-11-18T08:35:58;4.72;;;1.80;;
33268;SDS011;19640;50.944;5.260;2022-11-18T08:38:33;7.63;;;2.10;;
33268;SDS011;19640;50.944;5.260;2022-11-18T08:40:59;6.38;;;1.65;;
33268;SDS011;19640;50.944;5.260;2022-11-18T08:43:25;4.88;;;1.83;;
33268;SDS011;19640;50.944;5.260;2022-11-18T08:45:50;6.38;;;1.60;;
33268;SDS011;19640;50.944;5.260;2022-11-18T08:48:16;4.32;;;1.60;;
33268;SDS011;19640;50.944;5.260;2022-11-18T08:50:42;6.43;;;2.08;;
33268;SDS011;19640;50.944;5.260;2022-11-18T08:53:07;5.05;;;1.38;;
33268;SDS011;19640;50.944;5.260;2022-11-18T08:55:33;5.40;;;1.42;;
33268;SDS011;19640;50.944;5.260;2022-11-18T08:57:59;4.22;;;1.38;;
33268;SDS011;19640;50.944;5.260;2022-11-18T09:00:24;4.72;;;1.77;;
33268;SDS011;19640;50.944;5.260;2022-11-18T09:02:50;8.95;;;1.67;;
33268;SDS011;19640;50.944;5.260;2022-11-18T09:05:15;3.40;;;1.45;;
33268;SDS011;19640;50.944;5.260;2022-11-18T09:07:41;5.38;;;2.60;;
33268;SDS011;19640;50.944;5.260;2022-11-18T09:10:07;5.38;;;1.75;;
33268;SDS011;19640;50.944;5.260;2022-11-18T09:12:33;5.53;;;1.52;;
33268;SDS011;19640;50.944;5.260;2022-11-18T09:14:58;6.13;;;1.65;;
33268;SDS011;19640;50.944;5.260;2022-11-18T09:17:24;3.83;;;1.33;;
33268;SDS011;19640;50.944;5.260;2022-11-18T09:19:50;4.93;;;2.00;;
33268;SDS011;19640;50.944;5.260;2022-11-18T09:22:15;3.90;;;1.67;;
33268;SDS011;19640;50.944;5.260;2022-11-18T09:24:41;6.22;;;1.88;;
33268;SDS011;19640;50.944;5.260;2022-11-18T09:27:07;4.53;;;1.65;;
33268;SDS011;19640;50.944;5.260;2022-11-18T09:29:33;9.63;;;2.60;;
33268;SDS011;19640;50.944;5.260;2022-11-18T09:31:59;7.32;;;2.13;;
33268;SDS011;19640;50.944;5.260;2022-11-18T09:34:26;4.25;;;2.25;;
33268;SDS011;19640;50.944;5.260;2022-11-18T09:36:53;2.88;;;1.90;;
33268;SDS011;19640;50.944;5.260;2022-11-18T09:39:21;6.30;;;2.20;;
33268;SDS011;19640;50.944;5.260;2022-11-18T09:41:53;2.83;;;1.70;;
33268;SDS011;19640;50.944;5.260;2022-11-18T09:45:01;6.45;;;1.88;;
33268;SDS011;19640;50.944;5.260;2022-11-18T09:47:36;5.32;;;2.15;;
33268;SDS011;19640;50.944;5.260;2022-11-18T09:50:03;4.80;;;1.95;;
33268;SDS011;19640;50.944;5.260;2022-11-18T09:55:18;6.32;;;2.13;;
33268;SDS011;19640;50.944;5.260;2022-11-18T09:57:45;5.47;;;2.03;;
33268;SDS011;19640;50.944;5.260;2022-11-18T10:07:56;6.05;;;2.28;;
33268;SDS011;19640;50.944;5.260;2022-11-18T10:13:51;5.78;;;2.22;;
33268;SDS011;19640;50.944;5.260;2022-11-18T10:16:07;4.25;;;1.98;;
33268;SDS011;19640;50.944;5.260;2022-11-18T10:19:32;7.70;;;2.15;;
33268;SDS011;19640;50.944;5.260;2022-11-18T10:22:06;10.18;;;4.20;;
33268;SDS011;19640;50.944;5.260;2022-11-18T10:25:02;4.68;;;3.05;;
33268;SDS011;19640;50.944;5.260;2022-11-18T10:27:37;5.32;;;2.40;;
33268;SDS011;19640;50.944;5.260;2022-11-18T10:30:10;6.68;;;2.33;;
33268;SDS011;19640;50.944;5.260;2022-11-18T10:32:57;2.22;;;1.70;;
33268;SDS011;19640;50.944;5.260;2022-11-18T10:35:37;5.30;;;1.90;;
33268;SDS011;19640;50.944;5.260;2022-11-18T10:38:04;4.72;;;1.80;;
33268;SDS011;19640;50.944;5.260;2022-11-18T10:40:31;5.82;;;1.95;;
33268;SDS011;19640;50.944;5.260;2022-11-18T10:42:58;3.65;;;1.50;;
33268;SDS011;19640;50.944;5.260;2022-11-18T10:45:33;4.97;;;1.50;;
33268;SDS011;19640;50.944;5.260;2022-11-18T10:52:53;4.05;;;1.67;;
33268;SDS011;19640;50.944;5.260;2022-11-18T10:55:20;5.05;;;1.38;;
33268;SDS011;19640;50.944;5.260;2022-11-18T10:57:52;5.47;;;1.48;;
33268;SDS011;19640;50.944;5.260;2022-11-18T11:00:35;2.60;;;1.40;;
33268;SDS011;19640;50.944;5.260;2022-11-18T11:08:50;3.15;;;1.35;;
33268;SDS011;19640;50.944;5.260;2022-11-18T11:11:23;3.30;;;1.50;;
33268;SDS011;19640;50.944;5.260;2022-11-18T11:13:53;3.50;;;1.50;;
33268;SDS011;19640;50.944;5.260;2022-11-18T11:16:22;4.75;;;1.60;;
33268;SDS011;19640;50.944;5.260;2022-11-18T11:18:52;6.68;;;1.80;;
33268;SDS011;19640;50.944;5.260;2022-11-18T11:21:24;6.10;;;2.88;;
33268;SDS011;19640;50.944;5.260;2022-11-18T11:23:52;6.07;;;1.67;;
33268;SDS011;19640;50.944;5.260;2022-11-18T11:42:03;6.07;;;1.20;;
33268;SDS011;19640;50.944;5.260;2022-11-18T11:45:01;4.20;;;1.30;;
33268;SDS011;19640;50.944;5.260;2022-11-18T11:56:17;3.60;;;1.00;;
33268;SDS011;19640;50.944;5.260;2022-11-18T12:07:17;6.18;;;1.20;;
33268;SDS011;19640;50.944;5.260;2022-11-18T12:18:03;3.67;;;1.50;;
33268;SDS011;19640;50.944;5.260;2022-11-18T12:20:45;2.53;;;1.30;;
33268;SDS011;19640;50.944;5.260;2022-11-18T12:23:16;1.80;;;0.80;;
33268;SDS011;19640;50.944;5.260;2022-11-18T12:28:21;1.20;;;0.95;;
33268;SDS011;19640;50.944;5.260;2022-11-18T12:33:49;3.00;;;1.15;;
33268;SDS011;19640;50.944;5.260;2022-11-18T12:41:57;2.65;;;0.80;;
33268;SDS011;19640;50.944;5.260;2022-11-18T12:44:43;2.45;;;0.80;;
33268;SDS011;19640;50.944;5.260;2022-11-18T12:54:58;2.42;;;1.00;;
33268;SDS011;19640;50.944;5.260;2022-11-18T12:57:27;4.55;;;0.80;;
33268;SDS011;19640;50.944;5.260;2022-11-18T12:59:54;2.92;;;0.82;;
33268;SDS011;19640;50.944;5.260;2022-11-18T13:02:22;2.83;;;0.93;;
33268;SDS011;19640;50.944;5.260;2022-11-18T13:05:08;1.92;;;0.75;;
33268;SDS011;19640;50.944;5.260;2022-11-18T13:07:42;3.47;;;1.05;;
33268;SDS011;19640;50.944;5.260;2022-11-18T13:10:33;2.28;;;0.98;;
33268;SDS011;19640;50.944;5.260;2022-11-18T13:13:03;6.57;;;0.90;;
33268;SDS011;19640;50.944;5.260;2022-11-18T13:15:30;2.40;;;0.95;;
33268;SDS011;19640;50.944;5.260;2022-11-18T13:18:18;1.77;;;0.90;;
33268;SDS011;19640;50.944;5.260;2022-11-18T13:20:57;3.35;;;1.08;;
33268;SDS011;19640;50.944;5.260;2022-11-18T13:23:47;4.22;;;1.00;;
33268;SDS011;19640;50.944;5.260;2022-11-18T13:34:23;2.83;;;1.00;;
33268;SDS011;19640;50.944;5.260;2022-11-18T13:36:51;6.45;;;1.00;;
33268;SDS011;19640;50.944;5.260;2022-11-18T13:39:22;0.60;;;0.60;;
33268;SDS011;19640;50.944;5.260;2022-11-18T13:41:57;2.58;;;0.80;;
33268;SDS011;19640;50.944;5.260;2022-11-18T13:44:26;3.22;;;0.98;;
33268;SDS011;19640;50.944;5.260;2022-11-18T13:46:59;2.75;;;1.15;;
33268;SDS011;19640;50.944;5.260;2022-11-18T13:49:41;2.50;;;1.25;;
33268;SDS011;19640;50.944;5.260;2022-11-18T13:52:14;2.13;;;0.73;;
33268;SDS011;19640;50.944;5.260;2022-11-18T13:55:08;5.10;;;0.98;;
33268;SDS011;19640;50.944;5.260;2022-11-18T13:57:45;3.55;;;0.95;;
33268;SDS011;19640;50.944;5.260;2022-11-18T14:00:26;2.72;;;0.85;;
33268;SDS011;19640;50.944;5.260;2022-11-18T14:02:57;2.58;;;0.95;;
33268;SDS011;19640;50.944;5.260;2022-11-18T14:05:29;5.25;;;1.52;;
33268;SDS011;19640;50.944;5.260;2022-11-18T14:10:38;3.42;;;1.13;;
33268;SDS011;19640;50.944;5.260;2022-11-18T14:13:13;4.45;;;1.17;;
33268;SDS011;19640;50.944;5.260;2022-11-18T14:15:58;1.60;;;0.82;;
33268;SDS011;19640;50.944;5.260;2022-11-18T14:18:27;1.55;;;0.98;;
33268;SDS011;19640;50.944;5.260;2022-11-18T14:20:59;4.70;;;1.33;;
33268;SDS011;19640;50.944;5.260;2022-11-18T14:23:35;3.75;;;1.08;;
33268;SDS011;19640;50.944;5.260;2022-11-18T14:26:04;4.55;;;1.17;;
33268;SDS011;19640;50.944;5.260;2022-11-18T14:28:40;1.92;;;0.75;;
33268;SDS011;19640;50.944;5.260;2022-11-18T14:31:23;3.13;;;1.50;;
33268;SDS011;19640;50.944;5.260;2022-11-18T14:36:50;3.17;;;1.00;;
33268;SDS011;19640;50.944;5.260;2022-11-18T14:39:24;5.65;;;0.98;;
33268;SDS011;19640;50.944;5.260;2022-11-18T14:41:55;3.90;;;1.13;;
33268;SDS011;19640;50.944;5.260;2022-11-18T14:44:22;4.05;;;1.02;;
33268;SDS011;19640;50.944;5.260;2022-11-18T14:46:50;4.70;;;1.30;;
33268;SDS011;19640;50.944;5.260;2022-11-18T14:49:28;8.10;;;3.38;;
33268;SDS011;19640;50.944;5.260;2022-11-18T14:51:55;3.05;;;1.20;;
33268;SDS011;19640;50.944;5.260;2022-11-18T14:54:22;1.50;;;0.93;;
33268;SDS011;19640;50.944;5.260;2022-11-18T14:56:49;4.93;;;1.40;;
33268;SDS011;19640;50.944;5.260;2022-11-18T14:59:16;4.53;;;1.17;;
33268;SDS011;19640;50.944;5.260;2022-11-18T15:01:44;3.22;;;1.40;;
33268;SDS011;19640;50.944;5.260;2022-11-18T15:04:10;3.72;;;1.40;;
33268;SDS011;19640;50.944;5.260;2022-11-18T15:06:38;4.03;;;1.42;;
33268;SDS011;19640;50.944;5.260;2022-11-18T15:09:04;9.38;;;1.80;;
33268;SDS011;19640;50.944;5.260;2022-11-18T15:11:32;4.20;;;1.52;;
33268;SDS011;19640;50.944;5.260;2022-11-18T15:13:58;3.53;;;1.60;;
33268;SDS011;19640;50.944;5.260;2022-11-18T15:16:24;5.75;;;1.63;;
33268;SDS011;19640;50.944;5.260;2022-11-18T15:18:53;3.33;;;1.40;;
33268;SDS011;19640;50.944;5.260;2022-11-18T15:21:23;4.55;;;1.85;;
33268;SDS011;19640;50.944;5.260;2022-11-18T15:23:49;3.53;;;1.63;;
33268;SDS011;19640;50.944;5.260;2022-11-18T15:26:28;8.23;;;2.13;;
33268;SDS011;19640;50.944;5.260;2022-11-18T15:29:00;2.22;;;1.58;;
33268;SDS011;19640;50.944;5.260;2022-11-18T15:31:25;7.47;;;2.13;;
33268;SDS011;19640;50.944;5.260;2022-11-18T15:33:51;5.57;;;3.03;;
33268;SDS011;19640;50.944;5.260;2022-11-18T15:36:18;3.50;;;2.33;;
33268;SDS011;19640;50.944;5.260;2022-11-18T15:38:45;7.82;;;2.10;;
33268;SDS011;19640;50.944;5.260;2022-11-18T15:41:21;9.10;;;2.05;;
33268;SDS011;19640;50.944;5.260;2022-11-18T15:43:52;2.85;;;2.22;;
33268;SDS011;19640;50.944;5.260;2022-11-18T15:46:19;4.30;;;2.30;;
33268;SDS011;19640;50.944;5.260;2022-11-18T15:48:47;4.10;;;1.83;;
33268;SDS011;19640;50.944;5.260;2022-11-18T15:51:16;4.57;;;2.88;;
33268;SDS011;19640;50.944;5.260;2022-11-18T15:53:41;4.50;;;2.60;;
33268;SDS011;19640;50.944;5.260;2022-11-18T15:59:04;3.80;;;2.35;;
33268;SDS011;19640;50.944;5.260;2022-11-18T16:01:35;4.32;;;2.13;;
33268;SDS011;19640;50.944;5.260;2022-11-18T16:04:03;11.52;;;2.70;;
33268;SDS011;19640;50.944;5.260;2022-11-18T16:06:30;4.50;;;2.22;;
33268;SDS011;19640;50.944;5.260;2022-11-18T16:08:56;6.88;;;2.63;;
33268;SDS011;19640;50.944;5.260;2022-11-18T16:11:22;6.45;;;2.92;;
33268;SDS011;19640;50.944;5.260;2022-11-18T16:14:07;7.82;;;3.17;;
33268;SDS011;19640;50.944;5.260;2022-11-18T16:16:36;9.57;;;4.05;;
33268;SDS011;19640;50.944;5.260;2022-11-18T16:19:08;6.10;;;4.22;;
33268;SDS011;19640;50.944;5.260;2022-11-18T16:24:03;7.30;;;4.68;;
33268;SDS011;19640;50.944;5.260;2022-11-18T16:26:30;14.63;;;6.13;;
33268;SDS011;19640;50.944;5.260;2022-11-18T16:28:56;9.88;;;4.18;;
33268;SDS011;19640;50.944;5.260;2022-11-18T16:31:22;4.55;;;2.35;;
33268;SDS011;19640;50.944;5.260;2022-11-18T16:34:11;7.72;;;3.20;;
33268;SDS011;19640;50.944;5.260;2022-11-18T16:36:42;9.77;;;4.20;;
33268;SDS011;19640;50.944;5.260;2022-11-18T16:41:36;7.72;;;3.95;;
33268;SDS011;19640;50.944;5.260;2022-11-18T16:44:04;4.43;;;3.40;;
33268;SDS011;19640;50.944;5.260;2022-11-18T16:46:31;3.63;;;2.30;;
33268;SDS011;19640;50.944;5.260;2022-11-18T16:48:59;3.90;;;1.80;;
33268;SDS011;19640;50.944;5.260;2022-11-18T16:51:26;3.15;;;1.50;;
33268;SDS011;19640;50.944;5.260;2022-11-18T16:53:55;4.60;;;1.50;;
33268;SDS011;19640;50.944;5.260;2022-11-18T16:56:23;3.65;;;1.30;;
33268;SDS011;19640;50.944;5.260;2022-11-18T16:58:53;5.75;;;1.20;;
33268;SDS011;19640;50.944;5.260;2022-11-18T17:01:29;2.50;;;1.27;;
33268;SDS011;19640;50.944;5.260;2022-11-18T17:03:56;4.40;;;1.10;;
33268;SDS011;19640;50.944;5.260;2022-11-18T17:06:24;5.70;;;0.90;;
33268;SDS011;19640;50.944;5.260;2022-11-18T17:08:50;1.90;;;1.10;;
33268;SDS011;19640;50.944;5.260;2022-11-18T17:11:16;2.20;;;1.08;;
33268;SDS011;19640;50.944;5.260;2022-11-18T17:13:42;3.10;;;1.10;;
33268;SDS011;19640;50.944;5.260;2022-11-18T17:16:27;2.00;;;0.77;;